createdAt,value
2019-01-17T00:00:05.647Z,24.83
2019-01-17T00:03:13.657Z,25.83
2019-01-17T00:06:21.630Z,25.93
2019-01-17T00:09:29.770Z,31.13
2019-01-17T00:12:40.994Z,25.80
2019-01-17T00:16:02.517Z,24.63
2019-01-17T00:19:16.581Z,20.90
2019-01-17T00:22:40.004Z,22.47
2019-01-17T00:25:48.361Z,20.83
2019-01-17T00:29:09.892Z,20.63
2019-01-17T00:32:18.267Z,20.47
2019-01-17T00:35:32.414Z,22.23
2019-01-17T00:38:40.160Z,22.83
2019-01-17T00:41:45.378Z,19.33
2019-01-17T00:44:53.634Z,18.40
2019-01-17T00:48:07.939Z,17.40
2019-01-17T00:51:15.851Z,18.97
2019-01-17T00:54:37.008Z,17.77
2019-01-17T00:57:45.027Z,17.73
2019-01-17T01:00:52.983Z,21.37
2019-01-17T01:04:00.652Z,20.50
2019-01-17T01:07:05.889Z,17.83
2019-01-17T01:10:21.870Z,16.00
2019-01-17T01:13:36.197Z,18.53
2019-01-17T01:17:02.232Z,19.30
2019-01-17T01:20:10.645Z,13.37
2019-01-17T01:23:18.694Z,14.87
2019-01-17T01:26:42.062Z,14.17
2019-01-17T01:29:47.294Z,13.37
2019-01-17T01:33:07.264Z,13.13
2019-01-17T01:36:24.499Z,13.73
2019-01-17T01:39:32.525Z,11.53
2019-01-17T01:42:43.595Z,11.47
2019-01-17T01:46:03.934Z,12.67
2019-01-17T01:49:21.244Z,11.47
2019-01-17T01:52:38.426Z,11.83
2019-01-17T01:55:42.060Z,14.23
2019-01-17T01:58:45.738Z,15.00
2019-01-17T02:01:49.439Z,13.27
2019-01-17T02:04:53.083Z,14.60
2019-01-17T02:07:56.745Z,14.57
2019-01-17T02:11:00.385Z,11.80
2019-01-17T02:14:04.066Z,16.43
2019-01-17T02:17:07.742Z,14.37
2019-01-17T02:20:11.612Z,15.53
2019-01-17T02:23:15.491Z,14.80
2019-01-17T02:26:19.129Z,14.93
2019-01-17T02:29:22.814Z,14.20
2019-01-17T02:32:26.531Z,14.80
2019-01-17T02:35:30.189Z,12.77
2019-01-17T02:38:33.898Z,11.80
2019-01-17T02:41:37.558Z,10.80
2019-01-17T02:44:41.209Z,14.03
2019-01-17T02:47:44.878Z,11.23
2019-01-17T02:50:48.550Z,11.63
2019-01-17T02:53:52.219Z,10.03
2019-01-17T02:56:55.885Z,8.73
2019-01-17T02:59:59.578Z,11.40
2019-01-17T03:03:03.211Z,11.13
2019-01-17T03:06:06.889Z,11.57
2019-01-17T03:09:10.535Z,11.37
2019-01-17T03:12:14.211Z,8.60
2019-01-17T03:15:17.908Z,10.17
2019-01-17T03:18:21.586Z,9.60
2019-01-17T03:21:25.233Z,11.13
2019-01-17T03:24:28.884Z,9.90
2019-01-17T03:27:32.565Z,12.67
2019-01-17T03:30:36.317Z,11.33
2019-01-17T03:33:40.022Z,11.93
2019-01-17T03:36:43.707Z,9.87
2019-01-17T03:39:47.340Z,11.60
2019-01-17T03:42:51.026Z,9.27
2019-01-17T03:45:54.696Z,8.27
2019-01-17T03:48:58.386Z,8.47
2019-01-17T03:52:02.016Z,9.07
2019-01-17T03:55:06.602Z,7.00
2019-01-17T03:58:10.311Z,6.77
2019-01-17T04:01:13.949Z,6.83
2019-01-17T04:04:17.622Z,7.80
2019-01-17T04:07:21.272Z,6.67
2019-01-17T04:10:24.970Z,8.07
2019-01-17T04:13:28.600Z,9.90
2019-01-17T04:16:32.281Z,6.07
2019-01-17T04:19:35.940Z,7.13
2019-01-17T04:22:39.618Z,7.17
2019-01-17T04:25:43.279Z,7.37
2019-01-17T04:28:46.928Z,6.20
2019-01-17T04:31:50.609Z,10.63
2019-01-17T04:34:54.245Z,8.60
2019-01-17T04:37:57.908Z,11.43
2019-01-17T04:41:01.555Z,20.03
2019-01-17T04:44:05.217Z,18.67
2019-01-17T04:47:08.854Z,20.93
2019-01-17T04:50:14.038Z,17.90
2019-01-17T04:53:17.720Z,29.93
2019-01-17T04:56:21.357Z,17.60
2019-01-17T04:59:25.026Z,18.10
2019-01-17T05:02:28.685Z,18.93
2019-01-17T05:05:32.313Z,16.13
2019-01-17T05:08:35.954Z,15.47
2019-01-17T05:11:39.634Z,28.67
2019-01-17T05:14:43.286Z,20.67
2019-01-17T05:17:46.954Z,23.13
2019-01-17T05:20:50.629Z,14.17
2019-01-17T05:23:54.264Z,14.47
2019-01-17T05:26:57.938Z,14.03
2019-01-17T05:30:01.605Z,14.53
2019-01-17T05:33:05.277Z,10.00
2019-01-17T05:36:08.920Z,13.70
2019-01-17T05:39:12.604Z,13.90
2019-01-17T05:42:16.255Z,10.60
2019-01-17T05:45:19.958Z,10.77
2019-01-17T05:48:23.635Z,10.53
2019-01-17T05:51:27.296Z,9.77
2019-01-17T05:54:31.017Z,8.73
2019-01-17T05:57:34.699Z,11.50
2019-01-17T06:00:38.363Z,8.93
2019-01-17T06:03:42.007Z,10.73
2019-01-17T06:06:45.679Z,10.13
2019-01-17T06:09:49.333Z,13.50
2019-01-17T06:12:54.104Z,11.70
2019-01-17T06:15:58.010Z,11.90
2019-01-17T06:19:01.651Z,9.53
2019-01-17T06:22:05.328Z,8.30
2019-01-17T06:25:08.958Z,9.47
2019-01-17T06:28:12.630Z,9.20
2019-01-17T06:31:16.323Z,7.73
2019-01-17T06:34:19.993Z,9.30
2019-01-17T06:37:23.694Z,7.60
2019-01-17T06:40:29.288Z,7.67
2019-01-17T06:43:32.947Z,8.33
2019-01-17T06:46:36.613Z,8.87
2019-01-17T06:49:40.288Z,9.77
2019-01-17T06:52:43.970Z,12.73
2019-01-17T06:55:47.634Z,11.73
2019-01-17T06:58:51.312Z,9.10
2019-01-17T07:01:54.990Z,9.63
2019-01-17T07:04:58.637Z,10.03
2019-01-17T07:08:03.318Z,10.53
2019-01-17T07:11:07.004Z,13.43
2019-01-17T07:14:10.656Z,10.83
2019-01-17T07:17:14.375Z,11.67
2019-01-17T07:20:18.019Z,12.53
2019-01-17T07:23:21.690Z,10.17
2019-01-17T07:26:25.353Z,11.00
2019-01-17T07:29:29.046Z,11.83
2019-01-17T07:32:32.916Z,10.57
2019-01-17T07:35:36.607Z,14.17
2019-01-17T07:38:40.296Z,12.60
2019-01-17T07:41:44.030Z,13.53
2019-01-17T07:44:47.699Z,14.90
2019-01-17T07:47:51.340Z,14.50
2019-01-17T07:50:55.019Z,13.43
2019-01-17T07:53:58.686Z,15.17
2019-01-17T07:57:02.374Z,15.80
2019-01-17T08:00:22.672Z,17.80
2019-01-17T08:03:26.324Z,14.50
2019-01-17T08:06:30.013Z,17.10
2019-01-17T08:09:33.716Z,14.27
2019-01-17T08:12:37.405Z,12.53
2019-01-17T08:15:41.042Z,8.43
2019-01-17T08:18:44.706Z,8.50
2019-01-17T08:21:48.417Z,7.60
2019-01-17T08:24:53.609Z,8.83
2019-01-17T08:27:57.287Z,7.73
2019-01-17T08:31:00.954Z,8.23
2019-01-17T08:34:04.632Z,7.80
2019-01-17T08:37:08.300Z,6.30
2019-01-17T08:40:20.385Z,7.57
2019-01-17T08:43:23.645Z,11.17
2019-01-17T08:46:27.355Z,9.73
2019-01-17T08:49:31.043Z,9.00
2019-01-17T08:52:34.675Z,6.47
2019-01-17T08:55:38.363Z,8.63
2019-01-17T08:58:42.031Z,8.70
2019-01-17T09:01:45.697Z,9.70
2019-01-17T09:04:49.371Z,8.40
2019-01-17T09:07:53.060Z,8.47
2019-01-17T09:10:56.723Z,8.93
2019-01-17T09:14:00.366Z,9.50
2019-01-17T09:17:04.031Z,9.07
2019-01-17T09:20:10.883Z,8.23
2019-01-17T09:23:14.528Z,9.27
2019-01-17T09:26:18.181Z,7.73
2019-01-17T09:29:21.820Z,9.33
2019-01-17T09:32:25.497Z,8.30
2019-01-17T09:35:29.171Z,10.17
2019-01-17T09:38:32.843Z,7.80
2019-01-17T09:41:36.482Z,7.77
2019-01-17T09:44:40.165Z,10.43
2019-01-17T09:47:43.874Z,10.20
2019-01-17T09:50:47.506Z,8.83
2019-01-17T09:53:51.163Z,9.63
2019-01-17T09:56:54.808Z,7.27
2019-01-17T09:59:58.495Z,7.53
2019-01-17T10:03:02.169Z,8.97
2019-01-17T10:06:05.830Z,9.03
2019-01-17T10:09:09.513Z,8.77
2019-01-17T10:12:13.166Z,7.47
2019-01-17T10:15:28.768Z,11.00
2019-01-17T10:18:52.019Z,7.73
2019-01-17T10:22:20.072Z,8.90
2019-01-17T10:25:35.544Z,9.17
2019-01-17T10:28:57.386Z,10.27
2019-01-17T10:32:23.496Z,10.50
2019-01-17T10:35:32.932Z,10.90
2019-01-17T10:39:04.519Z,13.27
2019-01-17T10:42:16.830Z,7.63
2019-01-17T10:45:39.477Z,8.07
2019-01-17T10:48:46.340Z,12.47
2019-01-17T10:52:23.565Z,10.87
2019-01-17T10:55:35.880Z,11.23
2019-01-17T10:58:48.475Z,11.80
2019-01-17T11:02:15.121Z,11.13
2019-01-17T11:05:40.269Z,11.40
2019-01-17T11:09:11.018Z,10.20
2019-01-17T11:12:42.155Z,9.97
2019-01-17T11:16:05.356Z,11.73
2019-01-17T11:19:17.803Z,12.93
2019-01-17T11:22:27.194Z,14.77
2019-01-17T11:25:36.576Z,14.23
2019-01-17T11:28:46.343Z,12.77
2019-01-17T11:31:53.115Z,13.87
2019-01-17T11:35:08.159Z,13.87
2019-01-17T11:38:14.925Z,17.70
2019-01-17T11:41:45.132Z,14.87
2019-01-17T11:44:54.704Z,16.47
2019-01-17T11:48:04.153Z,12.93
2019-01-17T11:51:13.912Z,15.60
2019-01-17T11:54:23.549Z,21.07
2019-01-17T11:57:39.360Z,15.03
2019-01-17T12:01:13.155Z,14.80
2019-01-17T12:04:33.676Z,12.13
2019-01-17T12:07:37.345Z,12.67
2019-01-17T12:10:40.989Z,13.57
2019-01-17T12:13:44.689Z,12.03
2019-01-17T12:16:48.354Z,14.60
2019-01-17T12:19:52.048Z,15.73
2019-01-17T12:22:55.689Z,14.57
2019-01-17T12:25:59.356Z,12.77
2019-01-17T12:29:03.044Z,14.30
2019-01-17T12:32:06.671Z,14.73
2019-01-17T12:35:10.791Z,11.83
2019-01-17T12:38:14.447Z,13.80
2019-01-17T12:41:18.136Z,13.80
2019-01-17T12:44:21.796Z,14.20
2019-01-17T12:47:25.523Z,16.13
2019-01-17T12:50:29.196Z,11.67
2019-01-17T12:53:32.926Z,14.83
2019-01-17T12:56:36.699Z,13.33
2019-01-17T12:59:40.606Z,13.87
2019-01-17T13:02:44.681Z,15.87
2019-01-17T13:05:48.280Z,6.60
2019-01-17T13:08:51.991Z,15.33
2019-01-17T13:11:55.650Z,14.10
2019-01-17T13:14:59.341Z,14.10
2019-01-17T13:18:03.031Z,13.57
2019-01-17T13:21:06.701Z,11.60
2019-01-17T13:24:10.415Z,12.37
2019-01-17T13:27:14.185Z,12.80
2019-01-17T13:30:20.824Z,13.70
2019-01-17T13:33:24.585Z,13.53
2019-01-17T13:36:28.258Z,12.27
2019-01-17T13:39:31.933Z,15.17
2019-01-17T13:42:35.592Z,18.33
2019-01-17T13:45:39.285Z,13.73
2019-01-17T13:48:42.940Z,12.53
2019-01-17T13:51:47.236Z,14.70
2019-01-17T13:54:50.948Z,13.23
2019-01-17T13:57:54.612Z,14.23
2019-01-17T14:00:58.256Z,13.17
2019-01-17T14:04:01.925Z,12.03
2019-01-17T14:07:05.560Z,16.20
2019-01-17T14:10:14.806Z,14.63
2019-01-17T14:13:18.567Z,15.43
2019-01-17T14:16:22.200Z,17.60
2019-01-17T14:19:25.911Z,15.23
2019-01-17T14:22:29.584Z,17.83
2019-01-17T14:25:33.259Z,16.63
2019-01-17T14:28:36.917Z,20.90
2019-01-17T14:31:40.605Z,16.63
2019-01-17T14:34:44.238Z,19.60
2019-01-17T14:37:47.939Z,15.23
2019-01-17T14:40:51.642Z,15.03
2019-01-17T14:43:55.318Z,14.57
2019-01-17T14:46:58.981Z,17.30
2019-01-17T14:50:02.834Z,16.97
2019-01-17T14:53:06.495Z,16.27
2019-01-17T14:56:10.156Z,16.57
2019-01-17T14:59:13.836Z,15.80
2019-01-17T15:02:17.486Z,15.10
2019-01-17T15:05:21.187Z,13.13
2019-01-17T15:08:24.871Z,13.87
2019-01-17T15:11:28.502Z,12.20
2019-01-17T15:14:32.163Z,12.57
2019-01-17T15:17:36.010Z,14.30
2019-01-17T15:20:39.689Z,12.97
2019-01-17T15:23:43.339Z,13.63
2019-01-17T15:26:47.059Z,14.20
2019-01-17T15:29:50.732Z,16.20
2019-01-17T15:32:54.383Z,20.37
2019-01-17T15:35:58.063Z,17.33
2019-01-17T15:39:01.739Z,13.50
2019-01-17T15:42:05.425Z,16.27
2019-01-17T15:45:09.264Z,17.27
2019-01-17T15:48:12.930Z,15.67
2019-01-17T15:51:16.571Z,13.10
2019-01-17T15:54:20.260Z,14.37
2019-01-17T15:57:23.895Z,14.90
2019-01-17T16:00:29.807Z,12.30
2019-01-17T16:03:33.518Z,13.63
2019-01-17T16:06:37.161Z,18.10
2019-01-17T16:09:40.868Z,19.50
2019-01-17T16:12:44.545Z,17.93
2019-01-17T16:15:48.242Z,18.03
2019-01-17T16:18:51.936Z,15.60
2019-01-17T16:21:55.597Z,18.57
2019-01-17T16:24:59.252Z,20.40
2019-01-17T16:28:02.956Z,17.10
2019-01-17T16:31:06.699Z,20.17
2019-01-17T16:34:10.399Z,32.00
2019-01-17T16:37:15.632Z,18.33
2019-01-17T16:40:19.279Z,21.10
2019-01-17T16:43:22.978Z,24.07
2019-01-17T16:46:26.649Z,29.80
2019-01-17T16:49:30.342Z,30.23
2019-01-17T16:52:34.043Z,25.73
2019-01-17T16:55:37.738Z,27.13
2019-01-17T16:58:41.453Z,20.03
2019-01-17T17:01:45.141Z,23.07
2019-01-17T17:04:48.809Z,20.90
2019-01-17T17:07:52.477Z,23.33
2019-01-17T17:11:15.492Z,21.40
2019-01-17T17:14:19.154Z,24.47
2019-01-17T17:17:22.842Z,19.93
2019-01-17T17:20:26.501Z,17.90
2019-01-17T17:23:30.223Z,25.17
2019-01-17T17:26:33.875Z,32.97
2019-01-17T17:29:37.566Z,26.80
2019-01-17T17:32:41.227Z,28.80
2019-01-17T17:35:44.946Z,33.80
2019-01-17T17:38:48.580Z,23.83
2019-01-17T17:41:52.301Z,28.07
2019-01-17T17:44:56.032Z,21.43
2019-01-17T17:47:59.754Z,22.77
2019-01-17T17:51:03.813Z,25.20
2019-01-17T17:54:07.514Z,19.03
2019-01-17T17:57:11.169Z,19.63
2019-01-17T18:00:25.105Z,25.17
2019-01-17T18:03:28.775Z,23.37
2019-01-17T18:06:32.510Z,22.57
2019-01-17T18:09:36.160Z,21.00
2019-01-17T18:12:39.901Z,28.27
2019-01-17T18:15:44.249Z,22.23
2019-01-17T18:18:47.956Z,25.90
2019-01-17T18:21:51.624Z,23.90
2019-01-17T18:24:55.346Z,23.43
2019-01-17T18:27:59.019Z,21.63
2019-01-17T18:31:02.736Z,24.40
2019-01-17T18:34:07.956Z,24.30
2019-01-17T18:37:11.654Z,25.43
2019-01-17T18:40:17.236Z,29.60
2019-01-17T18:43:20.967Z,26.33
2019-01-17T18:46:24.647Z,32.37
2019-01-17T18:49:28.929Z,38.23
2019-01-17T18:52:32.563Z,34.87
2019-01-17T18:55:36.291Z,31.03
2019-01-17T18:58:39.957Z,24.57
2019-01-17T19:01:43.652Z,23.57
2019-01-17T19:04:47.317Z,23.30
2019-01-17T19:07:51.052Z,23.57
2019-01-17T19:10:54.759Z,24.47
2019-01-17T19:13:58.519Z,23.03
2019-01-17T19:17:03.098Z,23.43
2019-01-17T19:20:09.978Z,24.37
2019-01-17T19:23:13.698Z,21.67
2019-01-17T19:26:21.257Z,32.67
2019-01-17T19:29:27.035Z,26.67
2019-01-17T19:32:30.473Z,26.10
2019-01-17T19:35:34.195Z,24.83
2019-01-17T19:38:37.946Z,28.57
2019-01-17T19:41:41.667Z,27.27
2019-01-17T19:44:45.439Z,24.43
2019-01-17T19:47:49.137Z,26.67
2019-01-17T19:50:53.469Z,19.17
2019-01-17T19:53:57.203Z,21.63
2019-01-17T19:57:00.946Z,22.77
2019-01-17T20:00:07.821Z,26.27
2019-01-17T20:03:11.575Z,25.13
2019-01-17T20:06:15.352Z,26.30
2019-01-17T20:09:19.679Z,17.87
2019-01-17T20:12:23.388Z,19.73
2019-01-17T20:15:27.207Z,16.80
2019-01-17T20:18:31.052Z,18.30
2019-01-17T20:21:34.810Z,17.10
2019-01-17T20:24:39.617Z,14.77
2019-01-17T20:27:43.438Z,16.73
2019-01-17T20:30:47.186Z,20.43
2019-01-17T20:33:51.005Z,16.73
2019-01-17T20:36:54.789Z,20.67
2019-01-17T20:39:58.580Z,18.77
2019-01-17T20:43:02.302Z,19.13
2019-01-17T20:46:06.175Z,18.60
2019-01-17T20:49:09.892Z,18.50
2019-01-17T20:52:13.646Z,18.30
2019-01-17T20:55:17.414Z,19.47
2019-01-17T20:58:21.165Z,19.67
2019-01-17T21:01:28.021Z,23.83
2019-01-17T21:04:31.846Z,17.87
2019-01-17T21:07:36.817Z,21.30
2019-01-17T21:13:45.152Z,20.07
2019-01-17T21:16:48.850Z,18.17
2019-01-17T21:19:52.529Z,19.33
2019-01-17T21:22:56.197Z,22.13
2019-01-17T21:25:59.890Z,17.83
2019-01-17T21:29:03.568Z,22.50
2019-01-17T21:32:07.271Z,17.93
2019-01-17T21:35:11.958Z,23.63
2019-01-17T21:38:15.670Z,21.93
2019-01-17T21:41:19.323Z,18.70
2019-01-17T21:44:23.047Z,17.53
2019-01-17T21:47:26.680Z,18.83
2019-01-17T21:50:32.098Z,24.57
2019-01-17T21:53:35.751Z,17.07
2019-01-17T21:56:39.446Z,16.43
2019-01-17T21:59:43.099Z,18.03
2019-01-17T22:02:46.807Z,17.77
2019-01-17T22:05:50.450Z,18.43
2019-01-17T22:08:54.161Z,17.83
2019-01-17T22:11:57.836Z,18.53
2019-01-17T22:15:01.509Z,18.23
2019-01-17T22:18:05.181Z,17.97
2019-01-17T22:21:08.888Z,19.50
2019-01-17T22:24:12.567Z,18.40
2019-01-17T22:27:16.611Z,18.90
2019-01-17T22:30:26.210Z,19.37
2019-01-17T22:33:29.948Z,16.07
2019-01-17T22:36:33.579Z,19.33
2019-01-17T22:39:37.289Z,17.07
2019-01-17T22:42:40.950Z,16.20
2019-01-17T22:45:44.661Z,14.30
2019-01-17T22:48:48.299Z,15.87
2019-01-17T22:51:52.020Z,19.13
2019-01-17T22:54:55.687Z,10.77
2019-01-17T22:57:59.381Z,16.80
2019-01-17T23:01:06.257Z,15.87
2019-01-17T23:04:09.984Z,13.53
2019-01-17T23:07:13.658Z,17.20
2019-01-17T23:10:17.358Z,13.83
2019-01-17T23:13:21.012Z,12.87
2019-01-17T23:16:24.740Z,17.77
2019-01-17T23:19:28.380Z,15.37
2019-01-17T23:22:32.104Z,16.73
2019-01-17T23:25:35.813Z,14.27
2019-01-17T23:28:39.981Z,15.87
2019-01-17T23:31:43.648Z,15.00
2019-01-17T23:34:47.374Z,14.07
2019-01-17T23:37:51.111Z,14.83
2019-01-17T23:40:54.808Z,14.07
2019-01-17T23:43:58.520Z,13.47
2019-01-17T23:47:02.222Z,15.67
2019-01-17T23:50:10.851Z,11.93
2019-01-17T23:53:14.520Z,15.33
2019-01-17T23:56:18.162Z,14.47
2019-01-17T23:59:22.797Z,12.93
